createdAt,value
2022-09-23T00:01:07.742Z,4.74
2022-09-23T00:03:37.287Z,4.67
2022-09-23T00:06:07.283Z,4.61
2022-09-23T00:08:35.177Z,4.59
2022-09-23T00:11:17.195Z,4.59
2022-09-23T00:13:46.386Z,4.61
2022-09-23T00:16:16.083Z,4.61
2022-09-23T00:18:43.588Z,4.63
2022-09-23T00:21:12.734Z,4.63
2022-09-23T00:23:40.793Z,4.66
2022-09-23T00:26:09.694Z,4.70
2022-09-23T00:28:37.134Z,4.68
2022-09-23T00:31:12.542Z,4.65
2022-09-23T00:33:40.892Z,4.63
2022-09-23T00:36:11.565Z,4.57
2022-09-23T00:38:39.294Z,4.53
2022-09-23T00:41:06.555Z,4.49
2022-09-23T00:43:54.542Z,4.50
2022-09-23T00:46:36.389Z,4.46
2022-09-23T00:49:07.499Z,4.41
2022-09-23T00:51:39.125Z,4.36
2022-09-23T00:54:06.769Z,4.33
2022-09-23T00:56:34.839Z,4.30
2022-09-23T00:59:02.197Z,4.27
2022-09-23T01:01:29.946Z,4.23
2022-09-23T01:03:57.687Z,4.17
2022-09-23T01:06:25.206Z,4.16
2022-09-23T01:08:52.844Z,4.17
2022-09-23T01:11:35.136Z,4.13
2022-09-23T01:14:07.986Z,4.13
2022-09-23T01:17:05.892Z,4.07
2022-09-23T01:19:59.085Z,4.06
2022-09-23T01:22:54.975Z,4.03
2022-09-23T01:25:47.319Z,4.00
2022-09-23T01:28:33.488Z,4.02
2022-09-23T01:31:12.712Z,3.98
2022-09-23T01:34:02.746Z,3.93
2022-09-23T01:36:43.315Z,3.93
2022-09-23T01:39:10.832Z,3.93
2022-09-23T01:42:17.383Z,3.87
2022-09-23T01:44:51.717Z,3.86
2022-09-23T01:47:25.644Z,3.87
2022-09-23T01:50:32.953Z,3.86
2022-09-23T01:53:05.113Z,3.87
2022-09-23T01:55:34.547Z,3.88
2022-09-23T01:58:12.425Z,3.88
2022-09-23T02:00:43.834Z,3.88
2022-09-23T02:03:50.125Z,3.96
2022-09-23T02:06:22.323Z,4.09
2022-09-23T02:09:00.399Z,4.25
2022-09-23T02:11:27.823Z,4.38
2022-09-23T02:13:59.245Z,4.49
2022-09-23T02:16:47.723Z,4.60
2022-09-23T02:19:37.784Z,4.61
2022-09-23T02:22:23.555Z,4.66
2022-09-23T02:24:50.775Z,4.71
2022-09-23T02:27:26.186Z,4.69
2022-09-23T02:30:12.886Z,4.68
2022-09-23T02:32:58.410Z,4.65
2022-09-23T02:35:33.206Z,4.63
2022-09-23T02:38:21.886Z,4.60
2022-09-23T02:40:54.585Z,4.55
2022-09-23T02:43:52.430Z,4.50
2022-09-23T02:46:20.486Z,4.47
2022-09-23T02:49:23.537Z,4.37
2022-09-23T02:51:51.165Z,4.31
2022-09-23T02:54:23.266Z,4.25
2022-09-23T02:56:50.377Z,4.23
2022-09-23T02:59:19.594Z,4.18
2022-09-23T03:02:03.760Z,4.15
2022-09-23T03:05:08.416Z,4.11
2022-09-23T03:08:13.014Z,4.06
2022-09-23T03:10:53.704Z,4.03
2022-09-23T03:13:39.652Z,3.98
2022-09-23T03:16:15.149Z,3.95
2022-09-23T03:18:52.554Z,3.92
2022-09-23T03:21:45.068Z,3.91
2022-09-23T03:24:14.481Z,3.89
2022-09-23T03:26:44.648Z,3.82
2022-09-23T03:29:12.195Z,3.83
2022-09-23T03:31:41.209Z,3.84
2022-09-23T03:34:23.415Z,3.83
2022-09-23T03:37:01.997Z,3.86
2022-09-23T03:39:34.514Z,3.88
2022-09-23T03:42:12.842Z,3.87
2022-09-23T03:44:46.231Z,3.87
2022-09-23T03:47:14.910Z,3.83
2022-09-23T03:49:48.509Z,3.79
2022-09-23T03:52:20.193Z,3.74
2022-09-23T03:54:47.646Z,3.72
2022-09-23T03:57:14.904Z,3.69
2022-09-23T03:59:41.831Z,3.72
2022-09-23T04:02:09.505Z,3.73
2022-09-23T04:04:37.625Z,3.74
2022-09-23T04:07:05.055Z,3.76
2022-09-23T04:09:32.295Z,3.76
2022-09-23T04:11:59.244Z,3.75
2022-09-23T04:14:26.174Z,3.75
2022-09-23T04:16:53.175Z,3.77
2022-09-23T04:19:20.208Z,3.78
2022-09-23T04:21:47.318Z,3.78
2022-09-23T04:24:14.954Z,3.75
2022-09-23T04:26:42.124Z,3.75
2022-09-23T04:29:11.084Z,3.75
2022-09-23T04:31:38.327Z,3.75
2022-09-23T04:34:05.426Z,3.80
2022-09-23T04:36:32.979Z,3.82
2022-09-23T04:38:59.911Z,3.82
2022-09-23T04:41:27.091Z,3.82
2022-09-23T04:43:54.052Z,3.84
2022-09-23T04:46:21.057Z,3.94
2022-09-23T04:48:47.994Z,4.20
2022-09-23T04:51:20.965Z,4.48
2022-09-23T04:53:49.874Z,4.74
2022-09-23T04:56:22.504Z,4.82
2022-09-23T04:58:49.724Z,4.83
2022-09-23T05:01:16.687Z,5.13
2022-09-23T05:03:44.579Z,5.46
2022-09-23T05:06:14.008Z,5.72
2022-09-23T05:08:46.985Z,5.97
2022-09-23T05:11:14.017Z,6.21
2022-09-23T05:13:40.930Z,6.38
2022-09-23T05:16:12.128Z,6.31
2022-09-23T05:18:43.993Z,6.23
2022-09-23T05:21:12.247Z,6.16
2022-09-23T05:23:40.706Z,6.19
2022-09-23T05:26:10.166Z,6.26
2022-09-23T05:28:39.414Z,6.30
2022-09-23T05:31:20.542Z,6.39
2022-09-23T05:33:57.442Z,6.43
2022-09-23T05:36:25.558Z,6.48
2022-09-23T05:38:52.725Z,6.54
2022-09-23T05:41:23.227Z,6.59
2022-09-23T05:43:54.233Z,6.68
2022-09-23T05:46:28.126Z,6.75
2022-09-23T05:49:02.615Z,6.93
2022-09-23T05:51:31.513Z,7.09
2022-09-23T05:53:59.823Z,7.19
2022-09-23T05:56:28.153Z,7.31
2022-09-23T05:58:57.641Z,7.40
2022-09-23T06:01:27.161Z,7.51
2022-09-23T06:03:55.915Z,7.58
2022-09-23T06:06:28.981Z,7.68
2022-09-23T06:08:56.542Z,7.82
2022-09-23T06:11:23.872Z,7.93
2022-09-23T06:13:55.043Z,8.02
2022-09-23T06:16:22.320Z,8.15
2022-09-23T06:18:49.762Z,8.25
2022-09-23T06:21:17.739Z,8.38
2022-09-23T06:23:45.791Z,8.51
2022-09-23T06:26:14.729Z,8.58
2022-09-23T06:28:43.170Z,8.67
2022-09-23T06:31:15.521Z,8.74
2022-09-23T06:33:46.122Z,8.82
2022-09-23T06:36:23.331Z,8.90
2022-09-23T06:39:02.422Z,9.04
2022-09-23T06:41:30.142Z,9.15
2022-09-23T06:43:58.508Z,9.26
2022-09-23T06:46:25.739Z,9.41
2022-09-23T06:48:52.840Z,9.53
2022-09-23T06:51:19.997Z,9.64
2022-09-23T06:53:50.572Z,9.77
2022-09-23T06:56:19.873Z,9.93
2022-09-23T06:58:47.333Z,10.08
2022-09-23T07:01:17.274Z,10.24
2022-09-23T07:03:45.875Z,10.40
2022-09-23T07:06:12.992Z,10.56
2022-09-23T07:08:43.433Z,10.76
2022-09-23T07:11:12.452Z,10.90
2022-09-23T07:13:41.276Z,10.98
2022-09-23T07:16:09.211Z,11.03
2022-09-23T07:18:37.699Z,11.14
2022-09-23T07:21:16.326Z,11.23
2022-09-23T07:23:44.547Z,11.33
2022-09-23T07:26:11.822Z,11.45
2022-09-23T07:28:39.384Z,11.58
2022-09-23T07:31:08.632Z,11.70
2022-09-23T07:33:37.206Z,11.85
2022-09-23T07:36:09.242Z,11.93
2022-09-23T07:38:40.398Z,12.00
2022-09-23T07:41:11.923Z,12.04
2022-09-23T07:43:41.002Z,12.19
2022-09-23T07:46:11.154Z,12.27
2022-09-23T07:48:38.622Z,12.36
2022-09-23T07:51:36.035Z,12.44
2022-09-23T07:54:08.690Z,12.52
2022-09-23T07:56:37.301Z,12.59
2022-09-23T07:59:09.384Z,12.63
2022-09-23T08:01:41.566Z,12.72
2022-09-23T08:04:12.582Z,12.74
2022-09-23T08:06:50.515Z,12.77
2022-09-23T08:09:19.031Z,12.87
2022-09-23T08:11:46.592Z,12.94
2022-09-23T08:14:15.501Z,12.97
2022-09-23T08:16:44.892Z,12.97
2022-09-23T08:19:12.772Z,12.98
2022-09-23T08:21:40.534Z,13.06
2022-09-23T08:24:08.793Z,13.03
2022-09-23T08:26:35.803Z,13.09
2022-09-23T08:29:02.752Z,13.15
2022-09-23T08:31:29.960Z,13.23
2022-09-23T08:33:58.114Z,13.35
2022-09-23T08:36:26.115Z,13.53
2022-09-23T08:38:53.596Z,13.69
2022-09-23T08:41:39.392Z,13.76
2022-09-23T08:44:19.433Z,13.94
2022-09-23T08:47:10.688Z,14.03
2022-09-23T08:50:00.881Z,14.05
2022-09-23T08:52:47.274Z,14.00
2022-09-23T08:55:15.511Z,14.03
2022-09-23T08:58:25.976Z,14.11
2022-09-23T09:01:29.572Z,14.36
2022-09-23T09:03:58.961Z,14.52
2022-09-23T09:06:52.925Z,14.62
2022-09-23T09:09:30.902Z,14.80
2022-09-23T09:12:25.753Z,14.86
2022-09-23T09:15:13.977Z,14.97
2022-09-23T09:18:06.556Z,15.16
2022-09-23T09:20:59.113Z,15.20
2022-09-23T09:24:04.377Z,15.25
2022-09-23T09:26:35.395Z,15.21
2022-09-23T09:29:34.302Z,15.17
2022-09-23T09:32:15.192Z,15.11
2022-09-23T09:34:51.681Z,15.14
2022-09-23T09:37:21.112Z,15.16
2022-09-23T09:39:48.062Z,15.11
2022-09-23T09:42:27.642Z,14.98
2022-09-23T09:44:59.293Z,14.99
2022-09-23T09:47:32.602Z,14.93
2022-09-23T09:50:11.949Z,14.97
2022-09-23T09:52:43.129Z,14.99
2022-09-23T09:55:12.907Z,14.91
2022-09-23T09:57:49.911Z,14.95
2022-09-23T10:00:39.133Z,15.06
2022-09-23T10:03:23.478Z,15.09
2022-09-23T10:05:52.401Z,15.09
2022-09-23T10:08:35.115Z,15.04
2022-09-23T10:11:11.876Z,15.18
2022-09-23T10:13:39.130Z,15.27
2022-09-23T10:16:06.755Z,15.27
2022-09-23T10:18:37.621Z,15.22
2022-09-23T10:21:10.841Z,15.20
2022-09-23T10:23:44.381Z,15.15
2022-09-23T10:26:13.011Z,15.18
2022-09-23T10:28:50.402Z,15.13
2022-09-23T10:31:26.712Z,15.09
2022-09-23T10:33:57.484Z,15.14
2022-09-23T10:36:24.982Z,15.16
2022-09-23T10:39:23.116Z,15.11
2022-09-23T10:42:19.359Z,15.13
2022-09-23T10:45:31.600Z,15.21
2022-09-23T10:48:01.180Z,15.19
2022-09-23T10:50:35.007Z,15.12
2022-09-23T10:53:15.442Z,15.17
2022-09-23T10:56:01.121Z,15.24
2022-09-23T10:58:33.543Z,15.41
2022-09-23T11:01:26.992Z,15.59
2022-09-23T11:04:23.957Z,15.70
2022-09-23T11:07:09.737Z,15.66
2022-09-23T11:10:28.954Z,15.80
2022-09-23T11:13:31.980Z,15.99
2022-09-23T11:16:14.467Z,16.04
2022-09-23T11:18:49.885Z,16.03
2022-09-23T11:21:28.639Z,16.16
2022-09-23T11:24:18.366Z,16.29
2022-09-23T11:27:36.255Z,16.38
2022-09-23T11:30:13.243Z,16.30
2022-09-23T11:32:48.278Z,16.17
2022-09-23T11:35:20.770Z,15.97
2022-09-23T11:37:53.248Z,15.91
2022-09-23T11:40:24.138Z,15.94
2022-09-23T11:43:02.529Z,15.96
2022-09-23T11:45:36.791Z,16.04
2022-09-23T11:48:09.901Z,16.06
2022-09-23T11:51:00.788Z,16.15
2022-09-23T11:53:58.781Z,16.12
2022-09-23T11:56:38.001Z,16.04
2022-09-23T11:59:12.101Z,15.95
2022-09-23T12:01:45.977Z,15.90
2022-09-23T12:04:34.386Z,15.90
2022-09-23T12:07:06.304Z,15.95
2022-09-23T12:09:57.141Z,16.16
2022-09-23T12:12:59.516Z,16.27
2022-09-23T12:15:42.265Z,16.28
2022-09-23T12:18:27.706Z,16.08
2022-09-23T12:21:49.148Z,16.06
2022-09-23T12:24:56.467Z,16.10
2022-09-23T12:27:25.296Z,16.08
2022-09-23T12:29:57.035Z,15.96
2022-09-23T12:32:25.169Z,15.92
2022-09-23T12:34:53.589Z,15.93
2022-09-23T12:37:34.786Z,15.88
2022-09-23T12:40:30.359Z,15.86
2022-09-23T12:42:59.291Z,16.03
2022-09-23T12:45:32.712Z,16.09
2022-09-23T12:48:03.220Z,16.17
2022-09-23T12:50:51.138Z,16.42
2022-09-23T12:53:54.279Z,16.62
2022-09-23T12:56:30.012Z,16.80
2022-09-23T12:59:21.209Z,16.99
2022-09-23T13:01:48.278Z,17.17
2022-09-23T13:04:52.588Z,17.18
2022-09-23T13:07:26.021Z,17.03
2022-09-23T13:09:58.992Z,16.81
2022-09-23T13:12:31.234Z,16.54
2022-09-23T13:15:03.567Z,16.51
2022-09-23T13:17:38.370Z,16.56
2022-09-23T13:20:19.967Z,16.60
2022-09-23T13:22:49.930Z,16.59
2022-09-23T13:25:20.720Z,16.56
2022-09-23T13:28:00.814Z,16.56
2022-09-23T13:30:28.452Z,16.55
2022-09-23T13:33:17.472Z,16.55
2022-09-23T13:35:48.648Z,16.50
2022-09-23T13:38:26.579Z,16.41
2022-09-23T13:41:01.201Z,16.40
2022-09-23T13:43:31.694Z,16.36
2022-09-23T13:45:59.445Z,16.39
2022-09-23T13:48:28.226Z,16.38
2022-09-23T13:50:56.182Z,16.32
2022-09-23T13:53:30.548Z,16.20
2022-09-23T13:56:16.115Z,16.10
2022-09-23T13:58:43.627Z,16.03
2022-09-23T14:01:34.926Z,15.94
2022-09-23T14:04:04.896Z,15.99
2022-09-23T14:06:32.237Z,16.04
2022-09-23T14:09:01.566Z,16.01
2022-09-23T14:11:35.641Z,15.99
2022-09-23T14:14:07.370Z,15.95
2022-09-23T14:16:38.177Z,15.84
2022-09-23T14:19:06.723Z,15.72
2022-09-23T14:21:35.789Z,15.64
2022-09-23T14:24:32.319Z,15.63
2022-09-23T14:27:32.109Z,15.55
2022-09-23T14:30:00.400Z,15.44
2022-09-23T14:32:29.518Z,15.39
2022-09-23T14:35:06.720Z,15.33
2022-09-23T14:37:54.966Z,15.30
2022-09-23T14:40:36.376Z,15.29
2022-09-23T14:43:23.281Z,15.27
2022-09-23T14:45:53.492Z,15.18
2022-09-23T14:48:28.984Z,15.09
2022-09-23T14:51:01.169Z,15.04
2022-09-23T14:53:35.557Z,15.03
2022-09-23T14:56:11.080Z,14.86
2022-09-23T14:58:57.715Z,14.60
2022-09-23T15:01:31.217Z,14.42
2022-09-23T15:04:10.568Z,14.23
2022-09-23T15:06:38.978Z,14.11
2022-09-23T15:09:07.502Z,14.00
2022-09-23T15:11:36.195Z,13.95
2022-09-23T15:14:33.088Z,13.97
2022-09-23T15:16:53.243Z,14.01
2022-09-23T15:19:20.719Z,14.06
2022-09-23T15:21:51.807Z,14.08
2022-09-23T15:24:41.609Z,14.07
2022-09-23T15:27:28.785Z,14.08
2022-09-23T15:29:59.226Z,14.08
2022-09-23T15:32:26.217Z,14.05
2022-09-23T15:34:53.153Z,14.10
2022-09-23T15:37:20.137Z,14.12
2022-09-23T15:39:49.200Z,14.13
2022-09-23T15:42:18.274Z,14.09
2022-09-23T15:44:45.187Z,13.98
2022-09-23T15:47:17.251Z,13.86
2022-09-23T15:49:45.962Z,13.81
2022-09-23T15:52:15.282Z,13.76
2022-09-23T15:54:43.850Z,13.73
2022-09-23T15:57:11.248Z,13.69
2022-09-23T15:59:38.236Z,13.62
2022-09-23T16:02:13.524Z,13.56
2022-09-23T16:04:40.646Z,13.52
2022-09-23T16:07:12.436Z,13.42
2022-09-23T16:09:39.384Z,13.35
2022-09-23T16:12:09.743Z,13.30
2022-09-23T16:14:36.770Z,13.25
2022-09-23T16:17:05.203Z,13.09
2022-09-23T16:19:34.258Z,13.00
2022-09-23T16:22:01.285Z,13.02
2022-09-23T16:24:29.278Z,13.05
2022-09-23T16:26:59.946Z,13.06
2022-09-23T16:29:27.665Z,13.06
2022-09-23T16:31:55.752Z,13.01
2022-09-23T16:34:23.004Z,12.97
2022-09-23T16:36:50.190Z,12.90
2022-09-23T16:39:18.375Z,12.84
2022-09-23T16:41:45.336Z,12.73
2022-09-23T16:44:12.733Z,12.61
2022-09-23T16:46:42.839Z,12.56
2022-09-23T16:49:13.598Z,12.53
2022-09-23T16:51:40.632Z,12.53
2022-09-23T16:54:12.193Z,12.45
2022-09-23T16:56:45.077Z,12.35
2022-09-23T16:59:13.375Z,12.24
2022-09-23T17:01:58.928Z,12.19
2022-09-23T17:04:27.672Z,12.17
2022-09-23T17:06:56.043Z,12.09
2022-09-23T17:09:26.307Z,12.05
2022-09-23T17:12:16.649Z,12.03
2022-09-23T17:14:43.814Z,12.01
2022-09-23T17:17:10.816Z,11.90
2022-09-23T17:19:38.260Z,11.74
2022-09-23T17:22:05.279Z,11.66
2022-09-23T17:24:32.205Z,11.61
2022-09-23T17:26:59.212Z,11.57
2022-09-23T17:29:27.044Z,11.57
2022-09-23T17:31:54.408Z,11.60
2022-09-23T17:34:21.350Z,11.59
2022-09-23T17:36:48.400Z,11.56
2022-09-23T17:39:15.386Z,11.51
2022-09-23T17:41:42.299Z,11.49
2022-09-23T17:44:11.447Z,11.35
2022-09-23T17:46:38.366Z,11.31
2022-09-23T17:49:06.857Z,11.29
2022-09-23T17:51:33.985Z,11.25
2022-09-23T17:54:01.624Z,11.22
2022-09-23T17:56:30.784Z,11.12
2022-09-23T17:59:02.041Z,11.02
2022-09-23T18:01:29.584Z,10.90
2022-09-23T18:04:01.853Z,10.81
2022-09-23T18:06:35.866Z,10.77
2022-09-23T18:09:06.293Z,10.75
2022-09-23T18:11:40.783Z,10.70
2022-09-23T18:14:16.496Z,10.64
2022-09-23T18:16:48.212Z,10.57
2022-09-23T18:19:22.971Z,10.50
2022-09-23T18:21:56.533Z,10.46
2022-09-23T18:24:33.171Z,10.45
2022-09-23T18:27:01.586Z,10.42
2022-09-23T18:29:28.740Z,10.38
2022-09-23T18:31:56.408Z,10.35
2022-09-23T18:34:23.720Z,10.16
2022-09-23T18:36:50.712Z,10.10
2022-09-23T18:39:17.801Z,10.07
2022-09-23T18:41:44.863Z,10.05
2022-09-23T18:44:11.940Z,10.02
2022-09-23T18:46:38.923Z,9.96
2022-09-23T18:49:24.538Z,9.93
2022-09-23T18:51:55.857Z,9.91
2022-09-23T18:54:24.386Z,9.88
2022-09-23T18:56:52.946Z,9.86
2022-09-23T18:59:25.039Z,9.85
2022-09-23T19:01:52.060Z,9.91
2022-09-23T19:04:20.667Z,9.91
2022-09-23T19:06:48.524Z,9.92
2022-09-23T19:09:16.414Z,9.94
2022-09-23T19:11:44.497Z,9.95
2022-09-23T19:14:12.279Z,9.98
2022-09-23T19:16:40.341Z,10.00
2022-09-23T19:19:07.857Z,10.01
2022-09-23T19:21:35.280Z,10.01
2022-09-23T19:24:05.312Z,10.01
2022-09-23T19:26:36.799Z,10.03
2022-09-23T19:29:05.698Z,10.06
2022-09-23T19:31:35.203Z,10.05
2022-09-23T19:34:10.772Z,10.04
2022-09-23T19:36:40.678Z,10.04
2022-09-23T19:39:11.956Z,10.01
2022-09-23T19:41:39.075Z,10.00
2022-09-23T19:44:07.886Z,9.96
2022-09-23T19:46:39.654Z,9.92
2022-09-23T19:49:07.667Z,9.89
2022-09-23T19:51:35.165Z,9.84
2022-09-23T19:54:03.708Z,9.79
2022-09-23T19:56:31.191Z,9.75
2022-09-23T19:58:58.950Z,9.72
2022-09-23T20:01:27.767Z,9.69
2022-09-23T20:03:54.987Z,9.66
2022-09-23T20:06:22.415Z,9.60
2022-09-23T20:08:50.095Z,9.57
2022-09-23T20:11:19.498Z,9.55
2022-09-23T20:13:47.607Z,9.52
2022-09-23T20:16:20.895Z,9.47
2022-09-23T20:18:51.998Z,9.44
2022-09-23T20:21:19.859Z,9.42
2022-09-23T20:23:46.819Z,9.34
2022-09-23T20:26:32.711Z,9.34
2022-09-23T20:29:01.490Z,9.37
2022-09-23T20:31:28.792Z,9.36
2022-09-23T20:34:00.325Z,9.37
2022-09-23T20:36:28.840Z,9.36
2022-09-23T20:38:56.845Z,9.32
2022-09-23T20:41:23.854Z,9.30
2022-09-23T20:43:54.457Z,9.26
2022-09-23T20:46:24.699Z,9.22
2022-09-23T20:48:52.181Z,9.16
2022-09-23T20:51:19.057Z,9.12
2022-09-23T20:53:50.806Z,9.08
2022-09-23T20:56:19.896Z,9.05
2022-09-23T20:58:48.532Z,9.00
2022-09-23T21:01:16.274Z,8.96
2022-09-23T21:03:44.690Z,8.91
2022-09-23T21:06:14.153Z,8.77
2022-09-23T21:08:41.702Z,8.71
2022-09-23T21:11:11.967Z,8.64
2022-09-23T21:13:39.604Z,8.60
2022-09-23T21:16:09.970Z,8.53
2022-09-23T21:18:38.031Z,8.47
2022-09-23T21:21:06.130Z,8.38
2022-09-23T21:23:41.175Z,8.30
2022-09-23T21:26:13.116Z,8.29
2022-09-23T21:28:41.927Z,8.25
2022-09-23T21:31:17.719Z,8.20
2022-09-23T21:33:44.695Z,8.14
2022-09-23T21:36:11.704Z,8.09
2022-09-23T21:38:39.172Z,8.07
2022-09-23T21:41:07.820Z,8.06
2022-09-23T21:43:38.535Z,8.02
2022-09-23T21:46:07.762Z,8.02
2022-09-23T21:48:36.643Z,7.97
2022-09-23T21:51:06.709Z,7.94
2022-09-23T21:53:36.477Z,7.94
2022-09-23T21:56:04.646Z,7.91
2022-09-23T21:58:32.392Z,7.86
2022-09-23T22:00:59.564Z,7.88
2022-09-23T22:03:27.227Z,7.88
2022-09-23T22:06:07.726Z,7.85
2022-09-23T22:08:37.132Z,7.85
2022-09-23T22:11:06.605Z,7.82
2022-09-23T22:13:33.750Z,7.81
2022-09-23T22:16:03.951Z,7.78
2022-09-23T22:18:31.315Z,7.77
2022-09-23T22:20:59.155Z,7.75
2022-09-23T22:23:26.276Z,7.74
2022-09-23T22:26:02.820Z,7.73
2022-09-23T22:28:51.363Z,7.72
2022-09-23T22:31:36.761Z,7.71
2022-09-23T22:34:03.872Z,7.69
2022-09-23T22:36:30.895Z,7.68
2022-09-23T22:39:00.669Z,7.67
2022-09-23T22:41:27.621Z,7.67
2022-09-23T22:43:54.557Z,7.64
2022-09-23T22:46:25.295Z,7.63
2022-09-23T22:48:53.352Z,7.60
2022-09-23T22:51:22.350Z,7.55
2022-09-23T22:53:49.612Z,7.51
2022-09-23T22:56:16.586Z,7.46
2022-09-23T22:58:43.917Z,7.43
2022-09-23T23:01:11.868Z,7.38
2022-09-23T23:03:40.587Z,7.36
2022-09-23T23:06:09.782Z,7.31
2022-09-23T23:08:37.576Z,7.28
2022-09-23T23:11:10.064Z,7.24
2022-09-23T23:13:41.883Z,7.23
2022-09-23T23:16:11.840Z,7.23
2022-09-23T23:18:41.254Z,7.20
2022-09-23T23:21:10.465Z,7.16
2022-09-23T23:23:42.457Z,7.09
2022-09-23T23:26:10.103Z,7.11
2022-09-23T23:28:37.026Z,7.08
2022-09-23T23:31:05.591Z,7.03
2022-09-23T23:33:32.763Z,6.98
2022-09-23T23:35:59.700Z,6.88
2022-09-23T23:38:27.315Z,6.82
2022-09-23T23:40:55.586Z,6.77
2022-09-23T23:43:23.850Z,6.74
2022-09-23T23:45:51.589Z,6.71
2022-09-23T23:48:19.925Z,6.68
2022-09-23T23:50:57.544Z,6.62
2022-09-23T23:53:26.667Z,6.61
2022-09-23T23:55:53.565Z,6.57
2022-09-23T23:58:20.679Z,6.55
